sensor_id;sensor_type;location;lat;lon;timestamp;pressure;altitude;pressure_sealevel;temperature;humidity
40650;BME280;26342;42.826;23.992;2022-10-16T00:01:46;96067.56;;;7.29;100.00
40650;BME280;26342;42.826;23.992;2022-10-16T00:04:12;96068.06;;;7.19;100.00
40650;BME280;26342;42.826;23.992;2022-10-16T00:06:38;96058.31;;;7.13;100.00
40650;BME280;26342;42.826;23.992;2022-10-16T00:09:03;96068.53;;;7.10;100.00
40650;BME280;26342;42.826;23.992;2022-10-16T00:11:32;96071.91;;;6.98;100.00
40650;BME280;26342;42.826;23.992;2022-10-16T00:14:10;96080.22;;;7.02;100.00
40650;BME280;26342;42.826;23.992;2022-10-16T00:16:37;96084.13;;;6.99;100.00
40650;BME280;26342;42.826;23.992;2022-10-16T00:19:02;96082.78;;;6.90;100.00
40650;BME280;26342;42.826;23.992;2022-10-16T00:21:29;96096.38;;;7.00;100.00
40650;BME280;26342;42.826;23.992;2022-10-16T00:24:06;96095.34;;;7.02;100.00
40650;BME280;26342;42.826;23.992;2022-10-16T00:26:34;96093.75;;;6.94;100.00
40650;BME280;26342;42.826;23.992;2022-10-16T00:29:00;96105.19;;;6.94;100.00
40650;BME280;26342;42.826;23.992;2022-10-16T00:31:26;96083.63;;;6.84;100.00
40650;BME280;26342;42.826;23.992;2022-10-16T00:33:51;96100.31;;;6.91;100.00
40650;BME280;26342;42.826;23.992;2022-10-16T00:36:20;96093.66;;;6.82;100.00
40650;BME280;26342;42.826;23.992;2022-10-16T00:38:46;96074.78;;;6.72;100.00
40650;BME280;26342;42.826;23.992;2022-10-16T00:41:15;96091.88;;;6.76;100.00
40650;BME280;26342;42.826;23.992;2022-10-16T00:43:44;96100.84;;;6.75;100.00
40650;BME280;26342;42.826;23.992;2022-10-16T00:46:25;96093.38;;;6.65;100.00
40650;BME280;26342;42.826;23.992;2022-10-16T00:49:06;96095.00;;;6.66;100.00
40650;BME280;26342;42.826;23.992;2022-10-16T00:54:02;96089.34;;;6.56;100.00
40650;BME280;26342;42.826;23.992;2022-10-16T00:56:28;96099.31;;;6.61;100.00
40650;BME280;26342;42.826;23.992;2022-10-16T00:58:54;96102.63;;;6.56;100.00
40650;BME280;26342;42.826;23.992;2022-10-16T01:01:19;96105.53;;;6.48;100.00
40650;BME280;26342;42.826;23.992;2022-10-16T01:03:45;96109.78;;;6.49;100.00
40650;BME280;26342;42.826;23.992;2022-10-16T01:06:23;96105.34;;;6.43;100.00
40650;BME280;26342;42.826;23.992;2022-10-16T01:09:04;96109.25;;;6.40;100.00
40650;BME280;26342;42.826;23.992;2022-10-16T01:14:11;96110.47;;;6.31;100.00
40650;BME280;26342;42.826;23.992;2022-10-16T01:16:46;96098.09;;;6.25;100.00
40650;BME280;26342;42.826;23.992;2022-10-16T01:19:24;96106.06;;;6.25;100.00
40650;BME280;26342;42.826;23.992;2022-10-16T01:21:53;96099.50;;;6.28;100.00
40650;BME280;26342;42.826;23.992;2022-10-16T01:24:38;96110.47;;;6.31;100.00
40650;BME280;26342;42.826;23.992;2022-10-16T01:27:21;96111.50;;;6.30;100.00
40650;BME280;26342;42.826;23.992;2022-10-16T01:30:07;96110.31;;;6.26;100.00
40650;BME280;26342;42.826;23.992;2022-10-16T01:32:40;96117.06;;;6.22;100.00
40650;BME280;26342;42.826;23.992;2022-10-16T01:35:32;96113.63;;;6.15;100.00
40650;BME280;26342;42.826;23.992;2022-10-16T01:38:05;96118.09;;;6.14;100.00
40650;BME280;26342;42.826;23.992;2022-10-16T01:40:34;96112.66;;;6.09;100.00
40650;BME280;26342;42.826;23.992;2022-10-16T01:43:17;96112.66;;;6.09;100.00
40650;BME280;26342;42.826;23.992;2022-10-16T01:45:44;96109.59;;;6.06;100.00
40650;BME280;26342;42.826;23.992;2022-10-16T01:48:17;96110.81;;;6.03;100.00
40650;BME280;26342;42.826;23.992;2022-10-16T01:50:44;96114.88;;;6.06;100.00
40650;BME280;26342;42.826;23.992;2022-10-16T01:53:14;96115.25;;;6.16;100.00
40650;BME280;26342;42.826;23.992;2022-10-16T01:55:43;96110.59;;;6.11;100.00
40650;BME280;26342;42.826;23.992;2022-10-16T01:58:12;96109.56;;;6.12;100.00
40650;BME280;26342;42.826;23.992;2022-10-16T02:00:40;96106.34;;;5.97;100.00
40650;BME280;26342;42.826;23.992;2022-10-16T02:03:08;96122.22;;;6.04;100.00
40650;BME280;26342;42.826;23.992;2022-10-16T02:08:10;96121.22;;;5.98;100.00
40650;BME280;26342;42.826;23.992;2022-10-16T02:10:37;96122.06;;;5.92;100.00
40650;BME280;26342;42.826;23.992;2022-10-16T02:13:26;96130.41;;;5.89;100.00
40650;BME280;26342;42.826;23.992;2022-10-16T02:15:53;96128.19;;;5.93;100.00
40650;BME280;26342;42.826;23.992;2022-10-16T02:18:18;96122.88;;;5.86;100.00
40650;BME280;26342;42.826;23.992;2022-10-16T02:21:01;96134.28;;;5.86;100.00
40650;BME280;26342;42.826;23.992;2022-10-16T02:23:34;96133.50;;;5.79;100.00
40650;BME280;26342;42.826;23.992;2022-10-16T02:26:03;96130.84;;;5.79;100.00
40650;BME280;26342;42.826;23.992;2022-10-16T02:28:56;96138.19;;;5.77;100.00
40650;BME280;26342;42.826;23.992;2022-10-16T02:31:27;96128.22;;;5.73;100.00
40650;BME280;26342;42.826;23.992;2022-10-16T02:33:56;96141.44;;;5.79;100.00
40650;BME280;26342;42.826;23.992;2022-10-16T02:36:25;96136.75;;;5.75;100.00
40650;BME280;26342;42.826;23.992;2022-10-16T02:38:50;96135.94;;;5.68;100.00
40650;BME280;26342;42.826;23.992;2022-10-16T02:41:18;96130.69;;;5.61;100.00
40650;BME280;26342;42.826;23.992;2022-10-16T02:43:45;96124.19;;;5.50;100.00
40650;BME280;26342;42.826;23.992;2022-10-16T02:46:11;96132.13;;;5.57;100.00
40650;BME280;26342;42.826;23.992;2022-10-16T02:48:36;96140.88;;;5.57;100.00
40650;BME280;26342;42.826;23.992;2022-10-16T02:51:01;96134.38;;;5.53;100.00
40650;BME280;26342;42.826;23.992;2022-10-16T02:53:27;96137.19;;;5.52;100.00
40650;BME280;26342;42.826;23.992;2022-10-16T02:55:52;96143.72;;;5.49;100.00
40650;BME280;26342;42.826;23.992;2022-10-16T02:58:18;96145.56;;;5.49;100.00
40650;BME280;26342;42.826;23.992;2022-10-16T03:00:43;96143.34;;;5.46;100.00
40650;BME280;26342;42.826;23.992;2022-10-16T03:03:08;96147.63;;;5.47;100.00
40650;BME280;26342;42.826;23.992;2022-10-16T03:05:34;96137.41;;;5.44;100.00
40650;BME280;26342;42.826;23.992;2022-10-16T03:07:59;96135.19;;;5.47;100.00
40650;BME280;26342;42.826;23.992;2022-10-16T03:10:26;96141.91;;;5.50;100.00
40650;BME280;26342;42.826;23.992;2022-10-16T03:12:52;96146.97;;;5.45;100.00
40650;BME280;26342;42.826;23.992;2022-10-16T03:15:17;96142.31;;;5.47;100.00
40650;BME280;26342;42.826;23.992;2022-10-16T03:17:42;96139.47;;;5.42;100.00
40650;BME280;26342;42.826;23.992;2022-10-16T03:20:08;96144.34;;;5.45;100.00
40650;BME280;26342;42.826;23.992;2022-10-16T03:22:34;96142.53;;;5.45;100.00
40650;BME280;26342;42.826;23.992;2022-10-16T03:24:59;96151.28;;;5.39;100.00
40650;BME280;26342;42.826;23.992;2022-10-16T03:27:25;96156.38;;;5.34;100.00
40650;BME280;26342;42.826;23.992;2022-10-16T03:29:50;96150.69;;;5.30;100.00
40650;BME280;26342;42.826;23.992;2022-10-16T03:32:15;96147.22;;;5.30;100.00
40650;BME280;26342;42.826;23.992;2022-10-16T03:34:41;96155.97;;;5.30;100.00
40650;BME280;26342;42.826;23.992;2022-10-16T03:37:06;96148.22;;;5.29;100.00
40650;BME280;26342;42.826;23.992;2022-10-16T03:39:32;96154.13;;;5.24;100.00
40650;BME280;26342;42.826;23.992;2022-10-16T03:41:57;96154.56;;;5.21;100.00
40650;BME280;26342;42.826;23.992;2022-10-16T03:44:22;96152.09;;;5.20;100.00
40650;BME280;26342;42.826;23.992;2022-10-16T03:46:48;96154.34;;;5.23;100.00
40650;BME280;26342;42.826;23.992;2022-10-16T03:49:13;96158.00;;;5.22;100.00
40650;BME280;26342;42.826;23.992;2022-10-16T03:51:39;96159.84;;;5.15;100.00
40650;BME280;26342;42.826;23.992;2022-10-16T03:54:04;96169.63;;;5.14;100.00
40650;BME280;26342;42.826;23.992;2022-10-16T03:56:29;96172.66;;;5.18;100.00
40650;BME280;26342;42.826;23.992;2022-10-16T03:58:55;96160.44;;;5.10;100.00
40650;BME280;26342;42.826;23.992;2022-10-16T04:01:20;96164.72;;;5.11;100.00
40650;BME280;26342;42.826;23.992;2022-10-16T04:03:45;96154.75;;;5.07;100.00
40650;BME280;26342;42.826;23.992;2022-10-16T04:06:11;96164.91;;;5.10;100.00
40650;BME280;26342;42.826;23.992;2022-10-16T04:08:36;96161.66;;;5.08;100.00
40650;BME280;26342;42.826;23.992;2022-10-16T04:11:02;96160.84;;;5.07;100.00
40650;BME280;26342;42.826;23.992;2022-10-16T04:13:29;96158.81;;;5.02;100.00
40650;BME280;26342;42.826;23.992;2022-10-16T04:15:54;96163.69;;;4.99;100.00
40650;BME280;26342;42.826;23.992;2022-10-16T04:18:20;96157.78;;;4.97;100.00
40650;BME280;26342;42.826;23.992;2022-10-16T04:20:45;96157.78;;;4.97;100.00
40650;BME280;26342;42.826;23.992;2022-10-16T04:23:10;96158.78;;;4.96;100.00
40650;BME280;26342;42.826;23.992;2022-10-16T04:25:36;96149.84;;;4.90;100.00
40650;BME280;26342;42.826;23.992;2022-10-16T04:28:01;96152.28;;;4.92;100.00
40650;BME280;26342;42.826;23.992;2022-10-16T04:30:27;96148.41;;;4.88;100.00
40650;BME280;26342;42.826;23.992;2022-10-16T04:32:52;96153.31;;;4.84;100.00
40650;BME280;26342;42.826;23.992;2022-10-16T04:35:19;96166.34;;;4.92;100.00
40650;BME280;26342;42.826;23.992;2022-10-16T04:37:46;96172.66;;;4.91;100.00
40650;BME280;26342;42.826;23.992;2022-10-16T04:40:12;96174.25;;;4.86;100.00
40650;BME280;26342;42.826;23.992;2022-10-16T04:42:37;96185.44;;;4.88;100.00
40650;BME280;26342;42.826;23.992;2022-10-16T04:45:04;96191.94;;;4.85;100.00
40650;BME280;26342;42.826;23.992;2022-10-16T04:47:30;96196.81;;;4.82;100.00
40650;BME280;26342;42.826;23.992;2022-10-16T04:49:55;96197.25;;;4.85;100.00
40650;BME280;26342;42.826;23.992;2022-10-16T04:52:22;96185.44;;;4.74;100.00
40650;BME280;26342;42.826;23.992;2022-10-16T04:54:49;96200.28;;;4.75;100.00
40650;BME280;26342;42.826;23.992;2022-10-16T04:57:15;96190.72;;;4.74;100.00
40650;BME280;26342;42.826;23.992;2022-10-16T04:59:41;96196.81;;;4.75;100.00
40650;BME280;26342;42.826;23.992;2022-10-16T05:02:06;96196.19;;;4.73;100.00
40650;BME280;26342;42.826;23.992;2022-10-16T05:04:31;96194.34;;;4.73;100.00
40650;BME280;26342;42.826;23.992;2022-10-16T05:06:57;96197.00;;;4.73;100.00
40650;BME280;26342;42.826;23.992;2022-10-16T05:09:22;96205.56;;;4.75;100.00
40650;BME280;26342;42.826;23.992;2022-10-16T05:11:48;96207.41;;;4.75;100.00
40650;BME280;26342;42.826;23.992;2022-10-16T05:14:13;96212.88;;;4.80;100.00
40650;BME280;26342;42.826;23.992;2022-10-16T05:16:38;96214.50;;;4.81;100.00
40650;BME280;26342;42.826;23.992;2022-10-16T05:19:04;96214.72;;;4.80;100.00
40650;BME280;26342;42.826;23.992;2022-10-16T05:21:29;96215.97;;;4.84;100.00
40650;BME280;26342;42.826;23.992;2022-10-16T05:23:55;96209.44;;;4.80;100.00
40650;BME280;26342;42.826;23.992;2022-10-16T05:26:20;96210.22;;;4.80;100.00
40650;BME280;26342;42.826;23.992;2022-10-16T05:28:46;96213.09;;;4.85;100.00
40650;BME280;26342;42.826;23.992;2022-10-16T05:31:12;96217.16;;;4.88;100.00
40650;BME280;26342;42.826;23.992;2022-10-16T05:33:37;96216.97;;;4.89;100.00
40650;BME280;26342;42.826;23.992;2022-10-16T05:36:08;96218.78;;;4.89;100.00
40650;BME280;26342;42.826;23.992;2022-10-16T05:38:35;96212.50;;;4.83;100.00
40650;BME280;26342;42.826;23.992;2022-10-16T05:41:01;96221.66;;;4.87;100.00
40650;BME280;26342;42.826;23.992;2022-10-16T05:43:30;96232.44;;;4.92;100.00
40650;BME280;26342;42.826;23.992;2022-10-16T05:46:01;96227.97;;;4.93;100.00
40650;BME280;26342;42.826;23.992;2022-10-16T05:48:27;96231.22;;;4.95;100.00
40650;BME280;26342;42.826;23.992;2022-10-16T05:51:04;96226.16;;;4.93;100.00
40650;BME280;26342;42.826;23.992;2022-10-16T05:53:31;96224.72;;;4.91;100.00
40650;BME280;26342;42.826;23.992;2022-10-16T05:55:58;96232.44;;;4.92;100.00
40650;BME280;26342;42.826;23.992;2022-10-16T05:58:24;96233.25;;;4.93;100.00
40650;BME280;26342;42.826;23.992;2022-10-16T06:00:59;96243.63;;;4.94;100.00
40650;BME280;26342;42.826;23.992;2022-10-16T06:03:25;96247.13;;;5.01;100.00
40650;BME280;26342;42.826;23.992;2022-10-16T06:05:51;96236.94;;;5.05;100.00
40650;BME280;26342;42.826;23.992;2022-10-16T06:08:17;96243.69;;;5.08;100.00
40650;BME280;26342;42.826;23.992;2022-10-16T06:10:44;96248.56;;;5.11;100.00
40650;BME280;26342;42.826;23.992;2022-10-16T06:13:11;96241.22;;;5.13;100.00
40650;BME280;26342;42.826;23.992;2022-10-16T06:15:37;96244.91;;;5.18;100.00
40650;BME280;26342;42.826;23.992;2022-10-16T06:18:04;96252.47;;;5.21;100.00
40650;BME280;26342;42.826;23.992;2022-10-16T06:20:30;96246.53;;;5.19;100.00
40650;BME280;26342;42.826;23.992;2022-10-16T06:22:55;96246.53;;;5.19;100.00
40650;BME280;26342;42.826;23.992;2022-10-16T06:25:20;96252.88;;;5.31;100.00
40650;BME280;26342;42.826;23.992;2022-10-16T06:27:46;96242.69;;;5.48;100.00
40650;BME280;26342;42.826;23.992;2022-10-16T06:30:11;96251.25;;;5.70;100.00
40650;BME280;26342;42.826;23.992;2022-10-16T06:32:36;96254.09;;;5.82;100.00
40650;BME280;26342;42.826;23.992;2022-10-16T06:35:02;96253.91;;;5.97;100.00
40650;BME280;26342;42.826;23.992;2022-10-16T06:37:27;96253.06;;;6.09;100.00
40650;BME280;26342;42.826;23.992;2022-10-16T06:39:53;96254.06;;;6.22;100.00
40650;BME280;26342;42.826;23.992;2022-10-16T06:42:19;96265.44;;;6.35;100.00
40650;BME280;26342;42.826;23.992;2022-10-16T06:44:44;96263.38;;;6.51;100.00
40650;BME280;26342;42.826;23.992;2022-10-16T06:47:10;96264.75;;;6.60;100.00
40650;BME280;26342;42.826;23.992;2022-10-16T06:49:35;96260.00;;;6.75;100.00
40650;BME280;26342;42.826;23.992;2022-10-16T06:52:00;96261.13;;;6.92;100.00
40650;BME280;26342;42.826;23.992;2022-10-16T06:54:27;96268.19;;;7.12;100.00
40650;BME280;26342;42.826;23.992;2022-10-16T06:56:52;96268.28;;;7.30;100.00
40650;BME280;26342;42.826;23.992;2022-10-16T06:59:20;96271.00;;;7.48;100.00
40650;BME280;26342;42.826;23.992;2022-10-16T07:01:46;96261.88;;;7.69;100.00
40650;BME280;26342;42.826;23.992;2022-10-16T07:04:11;96272.34;;;7.89;100.00
40650;BME280;26342;42.826;23.992;2022-10-16T07:06:36;96274.59;;;8.10;100.00
40650;BME280;26342;42.826;23.992;2022-10-16T07:09:04;96274.63;;;8.29;100.00
40650;BME280;26342;42.826;23.992;2022-10-16T07:11:30;96279.94;;;8.54;100.00
40650;BME280;26342;42.826;23.992;2022-10-16T07:13:56;96276.81;;;8.75;100.00
40650;BME280;26342;42.826;23.992;2022-10-16T07:16:32;96274.34;;;8.92;100.00
40650;BME280;26342;42.826;23.992;2022-10-16T07:18:59;96281.88;;;9.13;100.00
40650;BME280;26342;42.826;23.992;2022-10-16T07:21:27;96272.66;;;9.28;100.00
40650;BME280;26342;42.826;23.992;2022-10-16T07:23:55;96270.75;;;9.46;100.00
40650;BME280;26342;42.826;23.992;2022-10-16T07:26:22;96274.84;;;9.61;100.00
40650;BME280;26342;42.826;23.992;2022-10-16T07:28:47;96276.84;;;9.77;100.00
40650;BME280;26342;42.826;23.992;2022-10-16T07:31:14;96274.53;;;9.92;100.00
40650;BME280;26342;42.826;23.992;2022-10-16T07:33:41;96269.94;;;10.11;100.00
40650;BME280;26342;42.826;23.992;2022-10-16T07:36:11;96264.28;;;10.31;100.00
40650;BME280;26342;42.826;23.992;2022-10-16T07:38:36;96266.69;;;10.56;100.00
40650;BME280;26342;42.826;23.992;2022-10-16T07:41:05;96266.41;;;10.81;100.00
40650;BME280;26342;42.826;23.992;2022-10-16T07:43:31;96266.47;;;10.98;100.00
40650;BME280;26342;42.826;23.992;2022-10-16T07:45:56;96267.91;;;11.17;100.00
40650;BME280;26342;42.826;23.992;2022-10-16T07:48:22;96267.34;;;11.43;100.00
40650;BME280;26342;42.826;23.992;2022-10-16T07:50:48;96269.81;;;11.62;100.00
40650;BME280;26342;42.826;23.992;2022-10-16T07:53:14;96276.06;;;11.84;100.00
40650;BME280;26342;42.826;23.992;2022-10-16T07:55:40;96274.91;;;12.09;100.00
40650;BME280;26342;42.826;23.992;2022-10-16T07:58:06;96271.69;;;12.28;100.00
40650;BME280;26342;42.826;23.992;2022-10-16T08:00:32;96270.69;;;12.51;100.00
40650;BME280;26342;42.826;23.992;2022-10-16T08:02:58;96263.97;;;12.71;100.00
40650;BME280;26342;42.826;23.992;2022-10-16T08:05:31;96271.47;;;12.91;100.00
40650;BME280;26342;42.826;23.992;2022-10-16T08:07:56;96269.25;;;13.04;100.00
40650;BME280;26342;42.826;23.992;2022-10-16T08:10:24;96266.16;;;13.39;100.00
40650;BME280;26342;42.826;23.992;2022-10-16T08:12:50;96272.03;;;13.63;100.00
40650;BME280;26342;42.826;23.992;2022-10-16T08:15:16;96266.06;;;13.88;100.00
40650;BME280;26342;42.826;23.992;2022-10-16T08:17:41;96258.69;;;14.06;100.00
40650;BME280;26342;42.826;23.992;2022-10-16T08:20:07;96267.78;;;14.37;100.00
40650;BME280;26342;42.826;23.992;2022-10-16T08:22:33;96255.66;;;14.66;98.82
40650;BME280;26342;42.826;23.992;2022-10-16T08:24:58;96263.88;;;15.02;91.27
40650;BME280;26342;42.826;23.992;2022-10-16T08:27:23;96263.69;;;15.29;89.79
40650;BME280;26342;42.826;23.992;2022-10-16T08:29:49;96265.38;;;15.50;83.48
40650;BME280;26342;42.826;23.992;2022-10-16T08:32:15;96264.88;;;15.69;79.26
40650;BME280;26342;42.826;23.992;2022-10-16T08:34:40;96258.16;;;15.86;78.48
40650;BME280;26342;42.826;23.992;2022-10-16T08:37:05;96267.59;;;16.09;78.00
40650;BME280;26342;42.826;23.992;2022-10-16T08:39:33;96260.06;;;16.37;75.16
40650;BME280;26342;42.826;23.992;2022-10-16T08:47:22;96271.59;;;16.83;68.29
40650;BME280;26342;42.826;23.992;2022-10-16T08:50:10;96274.13;;;17.14;69.87
40650;BME280;26342;42.826;23.992;2022-10-16T08:52:40;96270.84;;;17.32;67.33
40650;BME280;26342;42.826;23.992;2022-10-16T08:57:54;96267.75;;;17.98;65.41
40650;BME280;26342;42.826;23.992;2022-10-16T09:00:19;96274.81;;;18.28;64.52
40650;BME280;26342;42.826;23.992;2022-10-16T09:02:52;96263.28;;;18.47;60.35
40650;BME280;26342;42.826;23.992;2022-10-16T09:05:29;96267.41;;;18.73;58.22
40650;BME280;26342;42.826;23.992;2022-10-16T09:10:38;96273.78;;;18.82;55.48
40650;BME280;26342;42.826;23.992;2022-10-16T09:16:28;96268.25;;;18.92;52.23
40650;BME280;26342;42.826;23.992;2022-10-16T09:19:01;96274.06;;;19.05;50.83
40650;BME280;26342;42.826;23.992;2022-10-16T09:21:32;96274.75;;;19.15;50.76
40650;BME280;26342;42.826;23.992;2022-10-16T09:24:11;96265.59;;;19.11;48.92
40650;BME280;26342;42.826;23.992;2022-10-16T09:26:38;96261.72;;;19.17;49.25
40650;BME280;26342;42.826;23.992;2022-10-16T09:29:03;96262.69;;;19.27;47.47
40650;BME280;26342;42.826;23.992;2022-10-16T09:31:29;96266.00;;;19.23;48.14
40650;BME280;26342;42.826;23.992;2022-10-16T09:33:59;96255.81;;;19.15;50.97
40650;BME280;26342;42.826;23.992;2022-10-16T09:36:27;96264.63;;;19.45;47.99
40650;BME280;26342;42.826;23.992;2022-10-16T09:39:08;96263.16;;;19.76;47.20
40650;BME280;26342;42.826;23.992;2022-10-16T09:41:42;96264.66;;;20.01;48.89
40650;BME280;26342;42.826;23.992;2022-10-16T09:44:23;96260.47;;;20.09;44.90
40650;BME280;26342;42.826;23.992;2022-10-16T09:47:01;96254.19;;;19.95;43.96
40650;BME280;26342;42.826;23.992;2022-10-16T09:49:27;96260.81;;;19.70;45.19
40650;BME280;26342;42.826;23.992;2022-10-16T09:52:13;96268.53;;;19.58;45.85
40650;BME280;26342;42.826;23.992;2022-10-16T09:54:56;96245.13;;;19.67;46.85
40650;BME280;26342;42.826;23.992;2022-10-16T09:57:22;96252.78;;;19.97;46.33
40650;BME280;26342;42.826;23.992;2022-10-16T09:59:50;96255.94;;;20.04;43.36
40650;BME280;26342;42.826;23.992;2022-10-16T10:02:18;96250.75;;;20.08;44.54
40650;BME280;26342;42.826;23.992;2022-10-16T10:04:52;96252.09;;;20.24;45.10
40650;BME280;26342;42.826;23.992;2022-10-16T10:07:27;96253.31;;;20.32;44.85
40650;BME280;26342;42.826;23.992;2022-10-16T10:09:55;96233.59;;;20.45;42.72
40650;BME280;26342;42.826;23.992;2022-10-16T10:12:24;96250.00;;;20.35;41.23
40650;BME280;26342;42.826;23.992;2022-10-16T10:14:52;96244.28;;;20.04;43.91
40650;BME280;26342;42.826;23.992;2022-10-16T10:17:23;96240.41;;;20.10;44.64
40650;BME280;26342;42.826;23.992;2022-10-16T10:19:55;96243.75;;;20.21;43.17
40650;BME280;26342;42.826;23.992;2022-10-16T10:33:25;96237.66;;;19.59;43.64
40650;BME280;26342;42.826;23.992;2022-10-16T10:39:01;96234.03;;;19.25;46.49
40650;BME280;26342;42.826;23.992;2022-10-16T11:00:21;96222.00;;;19.74;45.37
40650;BME280;26342;42.826;23.992;2022-10-16T11:03:55;96219.81;;;19.76;43.34
40650;BME280;26342;42.826;23.992;2022-10-16T11:06:30;96217.25;;;19.66;44.74
40650;BME280;26342;42.826;23.992;2022-10-16T11:09:26;96208.75;;;19.73;43.03
40650;BME280;26342;42.826;23.992;2022-10-16T11:12:01;96206.84;;;19.73;44.05
40650;BME280;26342;42.826;23.992;2022-10-16T11:15:02;96212.06;;;19.70;43.05
40650;BME280;26342;42.826;23.992;2022-10-16T11:17:36;96209.25;;;19.56;42.92
40650;BME280;26342;42.826;23.992;2022-10-16T11:22:49;96206.91;;;19.31;43.28
40650;BME280;26342;42.826;23.992;2022-10-16T11:25:21;96213.28;;;19.21;44.21
40650;BME280;26342;42.826;23.992;2022-10-16T11:27:57;96206.31;;;19.15;43.45
40650;BME280;26342;42.826;23.992;2022-10-16T11:30:28;96216.38;;;19.09;44.49
40650;BME280;26342;42.826;23.992;2022-10-16T11:35:49;96210.06;;;18.95;44.33
40650;BME280;26342;42.826;23.992;2022-10-16T11:41:15;96205.59;;;18.85;43.98
40650;BME280;26342;42.826;23.992;2022-10-16T11:43:51;96213.53;;;18.77;44.04
40650;BME280;26342;42.826;23.992;2022-10-16T11:46:20;96207.47;;;18.61;45.11
40650;BME280;26342;42.826;23.992;2022-10-16T11:51:31;96210.03;;;18.47;45.25
40650;BME280;26342;42.826;23.992;2022-10-16T11:54:23;96215.84;;;18.35;44.63
40650;BME280;26342;42.826;23.992;2022-10-16T11:56:53;96217.00;;;18.24;46.28
40650;BME280;26342;42.826;23.992;2022-10-16T11:59:57;96222.19;;;18.21;44.64
40650;BME280;26342;42.826;23.992;2022-10-16T12:05:14;96213.53;;;17.90;45.63
40650;BME280;26342;42.826;23.992;2022-10-16T12:08:10;96222.44;;;17.90;47.03
40650;BME280;26342;42.826;23.992;2022-10-16T12:10:38;96221.41;;;17.86;45.38
40650;BME280;26342;42.826;23.992;2022-10-16T12:13:25;96221.75;;;17.74;46.09
40650;BME280;26342;42.826;23.992;2022-10-16T12:15:50;96221.25;;;17.67;45.83
40650;BME280;26342;42.826;23.992;2022-10-16T12:18:23;96228.25;;;17.68;45.09
40650;BME280;26342;42.826;23.992;2022-10-16T12:20:57;96219.13;;;17.64;43.95
40650;BME280;26342;42.826;23.992;2022-10-16T12:23:31;96228.59;;;17.62;44.92
40650;BME280;26342;42.826;23.992;2022-10-16T12:25:59;96223.75;;;17.53;43.64
40650;BME280;26342;42.826;23.992;2022-10-16T12:28:29;96222.22;;;17.42;45.17
40650;BME280;26342;42.826;23.992;2022-10-16T12:31:06;96226.22;;;17.50;44.18
40650;BME280;26342;42.826;23.992;2022-10-16T12:33:40;96227.31;;;17.49;46.00
40650;BME280;26342;42.826;23.992;2022-10-16T12:36:26;96226.19;;;17.55;43.96
40650;BME280;26342;42.826;23.992;2022-10-16T12:38:53;96228.59;;;17.62;45.25
40650;BME280;26342;42.826;23.992;2022-10-16T12:41:33;96223.72;;;17.64;44.54
40650;BME280;26342;42.826;23.992;2022-10-16T12:44:20;96226.94;;;17.61;45.97
40650;BME280;26342;42.826;23.992;2022-10-16T12:46:46;96229.41;;;17.62;44.14
40650;BME280;26342;42.826;23.992;2022-10-16T12:51:37;96220.31;;;17.48;44.85
40650;BME280;26342;42.826;23.992;2022-10-16T12:59:52;96228.81;;;17.21;45.25
40650;BME280;26342;42.826;23.992;2022-10-16T13:05:01;96225.59;;;17.14;44.35
40650;BME280;26342;42.826;23.992;2022-10-16T13:21:36;96235.91;;;17.01;46.16
40650;BME280;26342;42.826;23.992;2022-10-16T13:27:23;96245.91;;;16.96;45.66
40650;BME280;26342;42.826;23.992;2022-10-16T13:29:58;96241.59;;;16.95;45.62
40650;BME280;26342;42.826;23.992;2022-10-16T13:32:26;96240.78;;;16.94;46.25
40650;BME280;26342;42.826;23.992;2022-10-16T13:34:51;96233.53;;;16.90;45.47
40650;BME280;26342;42.826;23.992;2022-10-16T13:37:23;96241.34;;;16.91;45.90
40650;BME280;26342;42.826;23.992;2022-10-16T13:39:49;96235.41;;;16.89;46.09
40650;BME280;26342;42.826;23.992;2022-10-16T13:42:28;96235.97;;;16.86;46.00
40650;BME280;26342;42.826;23.992;2022-10-16T13:44:55;96230.88;;;16.85;46.63
40650;BME280;26342;42.826;23.992;2022-10-16T13:47:25;96241.66;;;16.85;46.05
40650;BME280;26342;42.826;23.992;2022-10-16T13:50:06;96240.84;;;16.84;45.97
40650;BME280;26342;42.826;23.992;2022-10-16T13:52:32;96246.75;;;16.81;46.55
40650;BME280;26342;42.826;23.992;2022-10-16T13:54:57;96242.22;;;16.77;46.18
40650;BME280;26342;42.826;23.992;2022-10-16T13:57:24;96247.06;;;16.74;46.17
40650;BME280;26342;42.826;23.992;2022-10-16T13:59:50;96253.00;;;16.71;46.54
40650;BME280;26342;42.826;23.992;2022-10-16T14:02:35;96249.50;;;16.71;46.51
40650;BME280;26342;42.826;23.992;2022-10-16T14:05:04;96246.53;;;16.62;47.50
40650;BME280;26342;42.826;23.992;2022-10-16T14:07:34;96257.31;;;16.62;48.79
40650;BME280;26342;42.826;23.992;2022-10-16T14:10:04;96249.78;;;16.54;47.54
40650;BME280;26342;42.826;23.992;2022-10-16T14:12:30;96258.41;;;16.56;47.56
40650;BME280;26342;42.826;23.992;2022-10-16T14:14:57;96267.31;;;16.52;49.60
40650;BME280;26342;42.826;23.992;2022-10-16T14:17:25;96265.66;;;16.51;48.43
40650;BME280;26342;42.826;23.992;2022-10-16T14:19:53;96275.94;;;16.38;49.71
40650;BME280;26342;42.826;23.992;2022-10-16T14:24:57;96274.31;;;16.27;49.50
40650;BME280;26342;42.826;23.992;2022-10-16T14:27:29;96274.63;;;16.21;48.98
40650;BME280;26342;42.826;23.992;2022-10-16T14:32:32;96282.44;;;16.12;49.42
40650;BME280;26342;42.826;23.992;2022-10-16T14:34:58;96275.94;;;16.08;49.11
40650;BME280;26342;42.826;23.992;2022-10-16T14:37:25;96278.63;;;16.03;50.32
40650;BME280;26342;42.826;23.992;2022-10-16T14:39:52;96278.66;;;15.98;49.93
40650;BME280;26342;42.826;23.992;2022-10-16T14:42:21;96283.22;;;15.92;50.52
40650;BME280;26342;42.826;23.992;2022-10-16T14:44:50;96279.47;;;15.88;51.61